Weather
Algoa Flying ClubBookingsEnt 1064(rendered 2017-04-28 15:51:10) Member: Guest [54.161.75.128- private]
Go back one day  Today  Go forward one day
00h00-24h00  00h00-12h00  12h00-24h00  06h00-22h00  08h00-18h00   Bookingsheet Key 

Sunrise: 06:50B

Full view Bookings for Friday, 28th April 2017

Office closed the 27th April & 1st May 2017_Public Holidays

Sunset: 17:39B

 06h0007h0008h0009h0010h0011h0012h0013h0014h0015h0016h0017h0018h0019h0020h0021h00

ZU-WCG

Airplane company NTCA

Booked

Booked

ZS-KEO

Cessna C152 Single Engine

Maintenance

Maintenance

ZS-MXS

Cessna C152 Single Engine

ZS-PKS

Cessna C152 Single Engine

ZS-MBP

Cessna C172 Single Engine 4 seater

Maintenance

Booked

Maintenance

ZS-KND

Cessna C72R Complex Single Engine

Elite S812 SE

Elite Simulators FNPTII

Maintenance

Maintenance

Booked

Maintenance

Booked

Maintenance

Elite S812 ME

Elite Simulators FNPT II

Booked

ZS-SUL

Piper Twin Comanche

Booked

FAPE METAR 281330Z 05007KT CAVOK 26/15 Q1020 NOSIG
FAGG METAR 281330Z 33010KT 300V010 CAVOK 35/11 Q1017

Clayton Staples

CEO / Flight Instructor Gr II

Booked

Booked

Booked

Mike Thompson

Chief Flight Instructor

Russell Abrey

Flight Instructor Gr II

James Helliwell

Flight Instructor Gr lll

Abraham Muhumuza

Flight Instructor Gr lll

Booked

Dale Miskin

Briefing / Groundschool

Russell Phillips

P/Time Instructor Gr II

Alex Todd

P/Time Instructor Gr ll

Dave Anderson

P/Time Instructor Gr II

Eric van der Merwe

P/Time Instructor GrII

Stephan Smit

MADIBA SIM STUDENTS ONLY

Sophia Sudak

TEFL ENGLISH TEACHER

George Stewart

DFE

Tony van Vliet

DFE

FAPE TAF 281000Z 2812/2912 05011KT CAVOK    BECMG 2910/2912 08015G25KT    TX31/2812ZTN16/2903Z
FAGG TAFAMD 281200Z 2812/2912 34018KT CAVOK    TEMPO 2812/2815 34018G30KT    BECMG 2815/2817 34008KT    TX33/2912ZTN19/2906Z

Exam Station 1

CAA Exams

Exam Station 2

CAA Exams

Exam Station 3

CAA Exams

Upstairs Lecture

Upstairs

Down Lecture Roo

Downstairs

Logger

GPS Logger

Clubhouse

Functions

Braai Area

Outdoor Braai

Gremlins Grotto

Pub

 06h0007h0008h0009h0010h0011h0012h0013h0014h0015h0016h0017h0018h0019h0020h0021h00

index.php last modified on Wed 13 Jun 2012 7:48 PM